Time;durP1;ratioP1;P1;durP2;ratioP2;P2;SDS_P1;SDS_P2;PMS_P1;PMS_P2;Temp;Humidity;BMP_temperature;BMP_pressure;BME280_temperature;BME280_humidity;BME280_pressure;Samples;Min_cycle;Max_cycle;Signal;HPM_P1;HPM_P2
2023/04/29 00:02:29;;;;;;;;;;;;;;;12.11;96.81;100340.56;4981451;28;20370;-72
2023/04/29 00:05:33;;;;;;;;;;;;;;;12.12;96.30;100342.25;4981996;28;20389;-72
2023/04/29 00:08:36;;;;;;;;;;;;;;;12.13;96.35;100338.69;4982279;28;19925;-72
2023/04/29 00:11:39;;;;;;;;;;;;;;;12.16;96.31;100342.91;4982602;28;19948;-72
2023/04/29 00:14:42;;;;;;;;;;;;;;;12.16;96.68;100335.91;4982653;28;20301;-73
2023/04/29 00:17:45;;;;;;;;;;;;;;;12.17;96.22;100329.69;4979104;28;19971;-72
2023/04/29 00:20:49;;;;;;;;;;;;;;;12.14;96.56;100329.06;4981317;28;19929;-72
2023/04/29 00:23:52;;;;;;;;;;;;;;;12.14;96.56;100335.13;4981380;28;19964;-72
2023/04/29 00:26:55;;;;;;;;;;;;;;;12.16;97.10;100333.28;4973274;28;19972;-72
2023/04/29 00:29:58;;;;;;;;;;;;;;;12.19;97.15;100338.31;4972363;28;20003;-72
2023/04/29 00:33:01;;;;;;;;;;;;;;;12.23;96.87;100337.19;4971858;28;19972;-72
2023/04/29 00:36:06;;;;;;;;;;;;;;;12.19;96.65;100340.94;4972024;28;20389;-72
2023/04/29 00:39:10;;;;;;;;;;;;;;;12.20;96.64;100336.53;4972864;28;19995;-72
2023/04/29 00:42:13;;;;;;;;;;;;;;;12.21;96.78;100352.16;4972243;28;19963;-72
2023/04/29 00:45:16;;;;;;;;;;;;;;;12.19;97.56;100353.19;4971861;28;20298;-72
2023/04/29 00:48:19;;;;;;;;;;;;;;;12.17;97.62;100355.91;4971493;28;19971;-72
2023/04/29 00:51:22;;;;;;;;;;;;;;;12.20;97.88;100354.88;4972547;28;19925;-72
2023/04/29 00:54:25;;;;;;;;;;;;;;;12.24;97.69;100356.38;4972455;28;19964;-73
2023/04/29 00:57:29;;;;;;;;;;;;;;;12.22;97.45;100347.75;4971465;28;19967;-73
2023/04/29 01:00:32;;;;;;;;;;;;;;;12.18;97.76;100352.34;4972181;28;20538;-73
2023/04/29 01:03:36;;;;;;;;;;;;;;;12.19;98.04;100355.81;4971235;28;20012;-73
2023/04/29 01:06:46;;;;;;;;;;;;;;;12.20;97.70;100360.97;4971407;28;20024;-73
2023/04/29 01:10:06;;;;;;;;;;;;;;;12.19;97.47;100358.44;4970398;28;19944;-73
2023/04/29 01:13:15;;;;;;;;;;;;;;;12.18;98.56;100354.13;4970579;28;19925;-73
2023/04/29 01:16:19;;;;;;;;;;;;;;;12.17;98.59;100353.28;4971264;28;19976;-72
2023/04/29 01:19:44;;;;;;;;;;;;;;;12.18;98.39;100352.34;4970241;28;19954;-72
2023/04/29 01:22:47;;;;;;;;;;;;;;;12.16;98.00;100362.09;4972306;28;19971;-72
2023/04/29 01:25:51;;;;;;;;;;;;;;;12.17;98.01;100361.16;4970605;28;19925;-72
2023/04/29 01:29:15;;;;;;;;;;;;;;;12.15;98.23;100360.41;4971450;28;20327;-73
2023/04/29 01:32:25;;;;;;;;;;;;;;;12.15;98.28;100367.44;4971121;28;19924;-72
2023/04/29 01:35:47;;;;;;;;;;;;;;;12.14;98.22;100368.38;4971296;28;20328;-73
2023/04/29 01:38:54;;;;;;;;;;;;;;;12.14;98.50;100371.81;4970909;28;19975;-73
2023/04/29 01:42:16;;;;;;;;;;;;;;;12.11;98.60;100372.00;4971077;28;20305;-73
2023/04/29 01:45:20;;;;;;;;;;;;;;;12.11;98.50;100366.78;4970155;28;19994;-73
2023/04/29 01:48:24;;;;;;;;;;;;;;;12.00;99.73;100375.31;4971153;28;19940;-73
2023/04/29 01:51:28;;;;;;;;;;;;;;;12.04;99.45;100361.06;4971138;28;19925;-73
2023/04/29 01:54:35;;;;;;;;;;;;;;;12.08;99.31;100356.47;4971076;28;19964;-73
2023/04/29 01:57:38;;;;;;;;;;;;;;;12.07;98.99;100363.50;4959810;28;19936;-73
2023/04/29 02:00:59;;;;;;;;;;;;;;;12.10;99.21;100360.69;4970923;28;19930;-73
2023/04/29 02:04:32;;;;;;;;;;;;;;;12.14;99.15;100365.75;4971390;28;20005;-73
2023/04/29 02:07:35;;;;;;;;;;;;;;;12.14;99.16;100360.50;4969864;28;19945;-73
2023/04/29 02:10:38;;;;;;;;;;;;;;;12.04;100.00;100362.84;4970857;28;19925;-73
2023/04/29 02:13:53;;;;;;;;;;;;;;;11.97;100.00;100365.00;4970819;28;19972;-73
2023/04/29 02:16:57;;;;;;;;;;;;;;;12.04;100.00;100370.72;4970678;28;19964;-73
2023/04/29 02:20:00;;;;;;;;;;;;;;;12.06;99.76;100371.44;4970675;28;19929;-73
2023/04/29 02:23:03;;;;;;;;;;;;;;;12.08;100.00;100377.44;4970572;28;19972;-73
2023/04/29 02:26:08;;;;;;;;;;;;;;;12.07;99.94;100375.78;4971110;28;20437;-72
2023/04/29 02:29:11;;;;;;;;;;;;;;;12.10;99.84;100372.97;4970920;28;19925;-73
2023/04/29 02:32:15;;;;;;;;;;;;;;;12.07;99.96;100379.22;4970358;28;19940;-72
2023/04/29 02:35:17;;;;;;;;;;;;;;;12.08;100.00;100380.91;4970293;28;19987;-72
2023/04/29 02:38:20;;;;;;;;;;;;;;;12.10;99.53;100381.66;4971405;28;20413;-73
2023/04/29 02:41:24;;;;;;;;;;;;;;;12.13;99.73;100382.44;4970366;28;20393;-72
2023/04/29 02:44:28;;;;;;;;;;;;;;;12.09;99.62;100390.47;4971112;28;19932;-73
2023/04/29 02:47:31;;;;;;;;;;;;;;;12.11;99.33;100398.22;4958458;28;19924;-72
2023/04/29 02:50:53;;;;;;;;;;;;;;;12.06;99.82;100400.28;4970121;28;19940;-73
2023/04/29 02:54:18;;;;;;;;;;;;;;;12.02;100.00;100399.63;4970729;28;19925;-73
2023/04/29 02:57:21;;;;;;;;;;;;;;;12.05;100.00;100395.97;4959010;28;19968;-73
2023/04/29 03:00:24;;;;;;;;;;;;;;;12.05;100.00;100402.06;4969596;28;20082;-73
2023/04/29 03:03:27;;;;;;;;;;;;;;;12.03;100.00;100410.97;4969774;28;20012;-73
2023/04/29 03:06:30;;;;;;;;;;;;;;;11.99;100.00;100409.44;4969850;28;20340;-73
2023/04/29 03:09:33;;;;;;;;;;;;;;;11.89;100.00;100414.38;4970035;28;19924;-73
2023/04/29 03:12:38;;;;;;;;;;;;;;;11.83;100.00;100412.94;4970719;28;19925;-73
2023/04/29 03:15:41;;;;;;;;;;;;;;;11.91;100.00;100416.94;4969998;28;19964;-73
2023/04/29 03:18:44;;;;;;;;;;;;;;;11.94;100.00;100416.75;4972762;28;19928;-73
2023/04/29 03:21:47;;;;;;;;;;;;;;;11.83;99.97;100415.56;4973297;28;19928;-73
2023/04/29 03:24:50;;;;;;;;;;;;;;;11.91;99.90;100423.00;4973860;28;19925;-73
2023/04/29 03:27:54;;;;;;;;;;;;;;;11.94;99.56;100414.97;4972986;28;19968;-73
2023/04/29 03:30:58;;;;;;;;;;;;;;;11.96;98.90;100425.34;4972485;28;20017;-73
2023/04/29 03:34:01;;;;;;;;;;;;;;;11.83;98.55;100426.03;4973180;28;19980;-72
2023/04/29 03:37:04;;;;;;;;;;;;;;;11.74;98.69;100426.59;4973095;28;19983;-72
2023/04/29 03:40:07;;;;;;;;;;;;;;;11.77;97.15;100438.66;4972976;28;20012;-73
2023/04/29 03:43:12;;;;;;;;;;;;;;;11.78;95.23;100433.34;4972871;28;19925;-73
2023/04/29 03:46:15;;;;;;;;;;;;;;;11.78;96.44;100435.13;4973492;28;19925;-73
2023/04/29 03:49:18;;;;;;;;;;;;;;;11.74;97.30;100434.47;4973709;28;19968;-73
2023/04/29 03:52:21;;;;;;;;;;;;;;;11.74;97.55;100438.84;5051326;28;19973;-73
2023/04/29 03:55:27;;;;;;;;;;;;;;;11.81;97.27;100438.41;5094937;28;19923;-73
2023/04/29 03:58:30;;;;;;;;;;;;;;;11.63;97.46;100436.84;5094571;28;19977;-73
2023/04/29 04:01:33;;;;;;;;;;;;;;;11.61;96.63;100430.84;5094710;28;19927;-73
2023/04/29 04:04:39;;;;;;;;;;;;;;;11.68;96.49;100434.81;5094834;28;19969;-73
2023/04/29 04:07:43;;;;;;;;;;;;;;;11.68;95.71;100442.69;5094560;28;19923;-73
2023/04/29 04:11:13;;;;;;;;;;;;;;;11.64;92.53;100443.75;5081009;28;20001;-72
2023/04/29 04:14:24;;;;;;;;;;;;;;;11.58;92.45;100447.59;4982079;28;19980;-72
2023/04/29 04:17:40;;;;;;;;;;;;;;;11.54;93.62;100448.69;4979772;28;19933;-72
2023/04/29 04:20:43;;;;;;;;;;;;;;;11.58;93.71;100449.34;4979729;28;19933;-72
2023/04/29 04:23:46;;;;;;;;;;;;;;;11.51;94.02;100448.03;4981234;28;19975;-72
2023/04/29 04:26:55;;;;;;;;;;;;;;;11.54;93.77;100455.72;4977780;28;19929;-72
2023/04/29 04:30:04;;;;;;;;;;;;;;;11.58;93.99;100462.44;4978783;28;19933;-72
2023/04/29 04:33:09;;;;;;;;;;;;;;;11.52;94.28;100463.66;4980635;28;20278;-72
2023/04/29 04:36:14;;;;;;;;;;;;;;;11.54;94.36;100476.66;4977454;28;19925;-73
2023/04/29 04:39:18;;;;;;;;;;;;;;;11.54;94.31;100479.28;4969378;28;20013;-73
2023/04/29 04:42:22;;;;;;;;;;;;;;;11.53;93.67;100481.06;4978775;28;19928;-73
2023/04/29 04:46:11;;;;;;;;;;;;;;;11.47;94.31;100486.63;4982050;28;20063;-72
2023/04/29 04:49:45;;;;;;;;;;;;;;;11.42;94.90;100488.66;4976202;28;20064;-73
2023/04/29 04:53:13;;;;;;;;;;;;;;;11.29;94.75;100498.13;4973227;28;20024;-72
2023/04/29 04:56:21;;;;;;;;;;;;;;;11.35;93.93;100503.88;4978527;28;19932;-73
2023/04/29 04:59:24;;;;;;;;;;;;;;;11.40;93.21;100509.69;4978409;28;20017;-72
2023/04/29 05:02:27;;;;;;;;;;;;;;;11.34;92.63;100511.81;4960313;28;20301;-73
2023/04/29 05:05:32;;;;;;;;;;;;;;;11.31;92.79;100517.22;4971438;28;19968;-73
2023/04/29 05:08:35;;;;;;;;;;;;;;;11.30;91.97;100521.63;4971336;28;20301;-72
2023/04/29 05:11:41;;;;;;;;;;;;;;;11.38;91.66;100523.81;4969723;28;19967;-72
2023/04/29 05:14:51;;;;;;;;;;;;;;;11.37;91.47;100522.97;4971940;28;20282;-73
2023/04/29 05:17:54;;;;;;;;;;;;;;;11.14;90.45;100531.25;4971859;28;19979;-72
2023/04/29 05:20:58;;;;;;;;;;;;;;;11.19;91.17;100534.44;4970785;28;20009;-73
2023/04/29 05:24:02;;;;;;;;;;;;;;;11.21;91.16;100542.22;4970888;28;19929;-73
2023/04/29 05:30:34;;;;;;;;;;;;;;;11.25;89.29;100541.97;4971205;28;19925;-73
2023/04/29 05:33:37;;;;;;;;;;;;;;;11.26;87.93;100541.03;4971225;28;20404;-73
2023/04/29 05:36:40;;;;;;;;;;;;;;;11.22;88.57;100544.75;4970451;28;19971;-73
2023/04/29 05:39:51;;;;;;;;;;;;;;;11.36;89.17;100546.63;4969929;28;19929;-73
2023/04/29 05:43:19;;;;;;;;;;;;;;;11.46;88.44;100541.72;4970298;28;19925;-72
2023/04/29 05:46:41;;;;;;;;;;;;;;;11.38;88.41;100558.69;4970637;28;19930;-73
2023/04/29 05:49:53;;;;;;;;;;;;;;;11.47;89.39;100565.19;4970411;28;20005;-72
2023/04/29 05:53:09;;;;;;;;;;;;;;;11.51;89.92;100565.84;4971355;28;20059;-72
2023/04/29 05:56:32;;;;;;;;;;;;;;;11.50;90.55;100564.19;4970968;28;19924;-73
2023/04/29 06:00:21;;;;;;;;;;;;;;;11.57;90.43;100568.13;4963188;28;20018;-74
2023/04/29 06:04:21;;;;;;;;;;;;;;;;;;;;;
2023/04/29 06:08:16;;;;;;;;;;;;;;;11.20;87.38;100575.41;4943046;28;19926;-74
2023/04/29 06:11:40;;;;;;;;;;;;;;;11.23;85.51;100588.34;4964800;28;20294;-73
2023/04/29 06:14:44;;;;;;;;;;;;;;;11.36;84.88;100591.97;4959103;28;20005;-73
2023/04/29 06:17:47;;;;;;;;;;;;;;;11.48;84.56;100589.59;4970261;28;19929;-73
2023/04/29 06:20:50;;;;;;;;;;;;;;;11.45;85.63;100597.63;4971819;28;19945;-73
2023/04/29 06:23:54;;;;;;;;;;;;;;;11.38;87.43;100600.56;4970507;28;19964;-73
2023/04/29 06:26:58;;;;;;;;;;;;;;;11.41;85.01;100600.41;4970419;28;19925;-76
2023/04/29 06:30:02;;;;;;;;;;;;;;;11.43;86.90;100594.25;4969467;28;20084;-76
2023/04/29 06:33:07;;;;;;;;;;;;;;;11.59;86.60;100605.56;4970089;28;19933;-76
2023/04/29 06:36:11;;;;;;;;;;;;;;;11.74;86.99;100602.09;4974130;28;19928;-76
2023/04/29 06:40:06;;;;;;;;;;;;;;;11.68;81.70;100615.53;4979198;28;19968;-76
2023/04/29 06:43:29;;;;;;;;;;;;;;;11.80;82.66;100620.06;4980402;28;19928;-76
2023/04/29 06:46:51;;;;;;;;;;;;;;;11.69;81.24;100622.47;4980807;28;20298;-76
2023/04/29 06:50:17;;;;;;;;;;;;;;;11.74;82.65;100623.06;4980940;28;19925;-75
2023/04/29 06:53:21;;;;;;;;;;;;;;;11.77;84.06;100628.13;4982913;28;20499;-75
2023/04/29 06:56:24;;;;;;;;;;;;;;;11.84;84.20;100631.25;4982797;28;19968;-75
2023/04/29 06:59:27;;;;;;;;;;;;;;;11.83;82.55;100635.63;4982930;28;19968;-75
2023/04/29 07:02:31;;;;;;;;;;;;;;;11.75;82.24;100634.38;4982765;28;19925;-75
2023/04/29 07:05:38;;;;;;;;;;;;;;;11.84;82.68;100640.00;4982701;28;19933;-75
2023/04/29 07:08:41;;;;;;;;;;;;;;;11.78;81.85;100642.06;4979385;28;19936;-75
2023/04/29 07:11:44;;;;;;;;;;;;;;;11.75;82.28;100647.47;4981553;28;19929;-74
2023/04/29 07:14:47;;;;;;;;;;;;;;;11.81;83.30;100653.22;4981690;28;19972;-75
2023/04/29 07:17:50;;;;;;;;;;;;;;;11.74;83.06;100649.25;4982485;28;19975;-76
2023/04/29 07:20:54;;;;;;;;;;;;;;;11.77;84.44;100662.19;4982703;28;20385;-73
2023/04/29 07:23:59;;;;;;;;;;;;;;;11.76;84.44;100667.50;4982488;28;19972;-77
2023/04/29 07:27:03;;;;;;;;;;;;;;;11.66;84.14;100669.78;4983318;28;19999;-77
2023/04/29 07:30:06;;;;;;;;;;;;;;;11.60;83.95;100670.09;4978071;28;19950;-79
2023/04/29 07:33:10;;;;;;;;;;;;;;;11.77;84.75;100682.28;4982336;28;19970;-75
2023/04/29 07:36:17;;;;;;;;;;;;;;;11.91;84.09;100684.19;4982067;28;19940;-75
2023/04/29 07:39:21;;;;;;;;;;;;;;;11.73;81.09;100673.75;4982343;28;19929;-74
2023/04/29 07:42:30;;;;;;;;;;;;;;;12.00;82.26;100686.31;4983129;28;19967;-73
2023/04/29 07:45:35;;;;;;;;;;;;;;;12.07;81.40;100691.09;4982235;28;19933;-78
2023/04/29 07:48:38;;;;;;;;;;;;;;;12.02;79.82;100682.66;4980002;28;19964;-74
2023/04/29 07:51:43;;;;;;;;;;;;;;;12.02;81.62;100693.13;4983056;28;20007;-72
2023/04/29 07:54:50;;;;;;;;;;;;;;;12.18;80.70;100692.28;4961728;28;19924;-75
2023/04/29 07:57:53;;;;;;;;;;;;;;;12.39;80.17;100685.00;4972775;28;19928;-75
2023/04/29 08:00:57;;;;;;;;;;;;;;;12.42;77.49;100690.06;4979550;28;19965;-73
2023/04/29 08:04:00;;;;;;;;;;;;;;;12.33;77.73;100686.16;4979020;28;19960;-74
2023/04/29 08:07:04;;;;;;;;;;;;;;;12.31;75.63;100699.34;4981705;28;19924;-76
2023/04/29 08:10:07;;;;;;;;;;;;;;;12.16;76.02;100700.25;4980172;28;20290;-76
2023/04/29 08:13:14;;;;;;;;;;;;;;;12.16;76.10;100705.50;4980323;28;19924;-76
2023/04/29 08:16:17;;;;;;;;;;;;;;;12.27;77.48;100713.56;4978823;28;19924;-76
2023/04/29 08:19:20;;;;;;;;;;;;;;;12.37;76.55;100721.75;4980669;28;20352;-75
2023/04/29 08:23:07;;;;;;;;;;;;;;;12.38;75.50;100733.09;4985447;28;20289;-75
2023/04/29 08:26:11;;;;;;;;;;;;;;;11.92;76.63;100733.03;4976694;28;20039;-74
2023/04/29 08:29:15;;;;;;;;;;;;;;;12.08;77.55;100742.59;4973980;28;19925;-74
2023/04/29 08:32:18;;;;;;;;;;;;;;;12.22;76.96;100752.34;4973504;28;19968;-75
2023/04/29 08:35:20;;;;;;;;;;;;;;;12.22;76.70;100747.09;4991458;28;19925;-74
2023/04/29 08:38:24;;;;;;;;;;;;;;;12.21;76.98;100755.88;4991906;28;20342;-74
2023/04/29 08:41:27;;;;;;;;;;;;;;;12.03;76.24;100755.13;4990012;28;20007;-74
2023/04/29 08:44:31;;;;;;;;;;;;;;;11.95;76.56;100761.69;4991674;28;19929;-74
2023/04/29 08:47:35;;;;;;;;;;;;;;;12.07;76.80;100763.66;4991745;28;20297;-74
2023/04/29 08:50:39;;;;;;;;;;;;;;;12.21;76.52;100761.09;4991664;28;19925;-74
2023/04/29 08:53:42;;;;;;;;;;;;;;;12.36;74.85;100753.34;4990003;28;20006;-75
2023/04/29 08:56:46;;;;;;;;;;;;;;;12.41;74.61;100761.78;4991808;28;19980;-76
2023/04/29 08:59:49;;;;;;;;;;;;;;;12.43;74.46;100762.53;4991672;28;19979;-74
2023/04/29 09:02:55;;;;;;;;;;;;;;;12.48;75.03;100765.75;4991370;28;20396;-74
2023/04/29 09:05:59;;;;;;;;;;;;;;;12.48;74.77;100768.38;4992108;28;19943;-74
2023/04/29 09:09:03;;;;;;;;;;;;;;;12.59;75.34;100771.22;4992014;28;19924;-74
2023/04/29 09:12:06;;;;;;;;;;;;;;;12.47;73.02;100770.13;4991061;28;20388;-74
2023/04/29 09:15:09;;;;;;;;;;;;;;;12.47;73.78;100777.16;4990016;28;19941;-74
2023/04/29 09:18:33;;;;;;;;;;;;;;;12.44;73.15;100778.19;4991848;28;19964;-74
2023/04/29 09:21:36;;;;;;;;;;;;;;;12.46;74.63;100778.09;4992109;28;19944;-75
2023/04/29 09:24:38;;;;;;;;;;;;;;;12.50;73.43;100788.31;4989802;28;19964;-74
2023/04/29 09:27:41;;;;;;;;;;;;;;;12.62;73.55;100792.03;4989755;28;19951;-74
2023/04/29 09:30:46;;;;;;;;;;;;;;;12.56;73.90;100797.63;4990981;28;19924;-75
2023/04/29 09:33:49;;;;;;;;;;;;;;;12.52;73.14;100801.38;4991924;28;19971;-74
2023/04/29 09:36:57;;;;;;;;;;;;;;;12.40;72.45;100802.06;4991804;28;19924;-74
2023/04/29 09:40:01;;;;;;;;;;;;;;;12.00;72.92;100797.22;4991483;28;20265;-74
2023/04/29 09:43:10;;;;;;;;;;;;;;;12.21;73.90;100805.69;4991452;28;19925;-75
2023/04/29 09:46:14;;;;;;;;;;;;;;;12.29;72.73;100810.50;4991338;28;19924;-74
2023/04/29 09:49:22;;;;;;;;;;;;;;;12.53;73.33;100808.31;4991447;28;19925;-74
2023/04/29 09:52:38;;;;;;;;;;;;;;;12.62;72.26;100807.78;4991353;28;19925;-74
2023/04/29 09:56:00;;;;;;;;;;;;;;;12.70;72.40;100810.84;4991239;28;19925;-74
2023/04/29 09:59:08;;;;;;;;;;;;;;;12.82;72.62;100816.31;4990903;28;19975;-74
2023/04/29 10:02:17;;;;;;;;;;;;;;;12.87;72.29;100811.66;4991570;28;19987;-74
2023/04/29 10:05:21;;;;;;;;;;;;;;;12.82;73.04;100829.44;4991188;28;20416;-74
2023/04/29 10:08:26;;;;;;;;;;;;;;;12.72;73.05;100815.97;4991093;28;19925;-74
2023/04/29 10:11:30;;;;;;;;;;;;;;;12.58;72.20;100822.00;4991113;28;20040;-73
2023/04/29 10:14:40;;;;;;;;;;;;;;;12.47;74.29;100811.25;4991210;28;19944;-74
2023/04/29 10:17:53;;;;;;;;;;;;;;;12.71;74.22;100817.75;4990994;28;19925;-74
2023/04/29 10:20:59;;;;;;;;;;;;;;;13.05;72.40;100813.22;4990946;28;19932;-74
2023/04/29 10:24:02;;;;;;;;;;;;;;;12.94;71.49;100812.97;4990873;28;19986;-74
2023/04/29 10:27:11;;;;;;;;;;;;;;;12.76;70.49;100815.75;4992383;28;19925;-74
2023/04/29 10:30:15;;;;;;;;;;;;;;;12.87;72.02;100816.91;4993381;28;20426;-74
2023/04/29 10:33:18;;;;;;;;;;;;;;;12.90;71.92;100812.31;4994397;28;19963;-74
2023/04/29 10:36:22;;;;;;;;;;;;;;;12.99;71.29;100821.44;4994257;28;20009;-74
2023/04/29 10:39:38;;;;;;;;;;;;;;;13.01;69.96;100828.28;4994304;28;19928;-74
2023/04/29 10:42:42;;;;;;;;;;;;;;;13.25;70.30;100825.22;4993773;28;19925;-74
2023/04/29 10:45:45;;;;;;;;;;;;;;;13.13;68.90;100818.03;4994068;28;20003;-74
2023/04/29 10:48:51;;;;;;;;;;;;;;;13.43;68.36;100823.25;4994139;28;19925;-74
2023/04/29 10:52:02;;;;;;;;;;;;;;;13.77;68.72;100819.47;4994082;28;19951;-74
2023/04/29 10:55:06;;;;;;;;;;;;;;;13.94;68.13;100821.06;4994090;28;20343;-74
2023/04/29 10:58:35;;;;;;;;;;;;;;;13.70;67.02;100824.25;4993669;28;20450;-74
2023/04/29 11:01:40;;;;;;;;;;;;;;;13.50;66.73;100824.63;4993632;28;19928;-74
2023/04/29 11:05:02;;;;;;;;;;;;;;;13.26;68.17;100825.09;4993605;28;20016;-74
2023/04/29 11:08:12;;;;;;;;;;;;;;;13.11;68.02;100812.00;4993705;28;19968;-75
2023/04/29 11:11:16;;;;;;;;;;;;;;;12.89;68.48;100815.88;4993761;28;20412;-74
2023/04/29 11:15:01;;;;;;;;;;;;;;;13.12;69.64;100809.31;4993520;28;19925;-74
2023/04/29 11:18:10;;;;;;;;;;;;;;;13.25;69.12;100820.81;4993754;28;19925;-73
2023/04/29 11:21:13;;;;;;;;;;;;;;;13.37;67.58;100818.38;4993637;28;19937;-74
2023/04/29 11:24:16;;;;;;;;;;;;;;;13.32;68.84;100817.81;4993515;28;19924;-74
2023/04/29 11:27:21;;;;;;;;;;;;;;;13.42;67.69;100819.81;4993521;28;19971;-74
2023/04/29 11:30:27;;;;;;;;;;;;;;;13.45;68.85;100830.13;4992014;28;19943;-74
2023/04/29 11:33:31;;;;;;;;;;;;;;;13.56;68.11;100831.25;4993532;28;19928;-74
2023/04/29 11:36:35;;;;;;;;;;;;;;;13.50;68.70;100837.75;4993014;28;19928;-74
2023/04/29 11:39:38;;;;;;;;;;;;;;;13.71;68.42;100832.97;4992209;28;19929;-74
2023/04/29 11:42:46;;;;;;;;;;;;;;;13.80;66.66;100837.69;4993256;28;19925;-74
2023/04/29 11:45:52;;;;;;;;;;;;;;;13.76;66.22;100830.09;4992571;28;20021;-74
2023/04/29 11:49:00;;;;;;;;;;;;;;;13.76;66.16;100832.72;4991281;28;19925;-73
2023/04/29 11:52:03;;;;;;;;;;;;;;;13.20;67.31;100841.19;4993162;28;19924;-73
2023/04/29 11:55:10;;;;;;;;;;;;;;;13.35;69.67;100842.13;4992845;28;20384;-74
2023/04/29 11:58:15;;;;;;;;;;;;;;;13.59;66.95;100847.72;4992836;28;20063;-74
2023/04/29 12:01:19;;;;;;;;;;;;;;;13.68;66.96;100841.03;4992907;28;19947;-76
2023/04/29 12:04:22;;;;;;;;;;;;;;;13.75;67.05;100855.50;4992919;28;19925;-74
2023/04/29 12:07:25;;;;;;;;;;;;;;;13.61;66.99;100848.44;4991413;28;19980;-74
2023/04/29 12:10:29;;;;;;;;;;;;;;;13.59;67.90;100850.34;4980947;28;20427;-74
2023/04/29 12:13:35;;;;;;;;;;;;;;;13.47;66.70;100846.66;4991665;28;19956;-74
2023/04/29 12:16:39;;;;;;;;;;;;;;;13.25;68.76;100851.47;4992916;28;19924;-74
2023/04/29 12:19:43;;;;;;;;;;;;;;;13.54;70.41;100846.28;4992504;28;20397;-75
2023/04/29 12:22:45;;;;;;;;;;;;;;;13.85;69.47;100848.78;4992681;28;19975;-74
2023/04/29 12:25:53;;;;;;;;;;;;;;;13.93;66.84;100856.19;4992923;28;19924;-76
2023/04/29 12:28:58;;;;;;;;;;;;;;;13.76;68.14;100859.00;4991844;28;19932;-74
2023/04/29 12:32:01;;;;;;;;;;;;;;;13.70;69.20;100858.41;4980812;28;19924;-74
2023/04/29 12:35:05;;;;;;;;;;;;;;;13.91;69.53;100852.78;4980502;28;19972;-73
2023/04/29 12:38:09;;;;;;;;;;;;;;;14.14;68.77;100852.22;4982307;28;20424;-75
2023/04/29 12:41:16;;;;;;;;;;;;;;;14.22;65.78;100856.16;4982859;28;19974;-74
2023/04/29 12:48:32;;;;;;;;;;;;;;;13.86;65.67;100858.34;4980238;28;20017;-75
2023/04/29 12:51:35;;;;;;;;;;;;;;;13.88;66.31;100856.47;4982059;28;19925;-75
2023/04/29 12:54:42;;;;;;;;;;;;;;;13.97;66.22;100868.19;4979457;28;19925;-74
2023/04/29 12:57:46;;;;;;;;;;;;;;;14.00;66.34;100859.28;4980819;28;19936;-74
2023/04/29 13:00:49;;;;;;;;;;;;;;;13.96;65.83;100862.09;4991857;28;20017;-77
2023/04/29 13:03:53;;;;;;;;;;;;;;;14.30;65.94;100861.81;4992071;28;19963;-80
2023/04/29 13:06:59;;;;;;;;;;;;;;;14.56;63.62;100860.19;4992374;28;19924;-77
2023/04/29 13:10:05;;;;;;;;;;;;;;;14.71;63.96;100858.34;4981799;28;19979;-77
2023/04/29 13:13:11;;;;;;;;;;;;;;;14.30;64.60;100864.44;4982192;28;20409;-78
2023/04/29 13:16:14;;;;;;;;;;;;;;;14.08;66.19;100871.03;4982657;28;20487;-78
2023/04/29 13:19:17;;;;;;;;;;;;;;;14.14;66.68;100868.00;4982542;28;19929;-77
2023/04/29 13:22:21;;;;;;;;;;;;;;;13.92;67.23;100875.53;4982038;28;19929;-75
2023/04/29 13:25:30;;;;;;;;;;;;;;;13.99;66.41;100882.09;4981325;28;20130;-76
2023/04/29 13:28:33;;;;;;;;;;;;;;;13.87;66.65;100882.84;4982671;28;19933;-76
2023/04/29 13:31:37;;;;;;;;;;;;;;;13.90;66.78;100882.66;4982551;28;19976;-76
2023/04/29 13:34:42;;;;;;;;;;;;;;;14.14;66.65;100873.28;4979780;28;19944;-76
2023/04/29 13:37:46;;;;;;;;;;;;;;;13.85;66.90;100889.97;4981823;28;19925;-76
2023/04/29 13:40:50;;;;;;;;;;;;;;;13.46;68.35;100888.75;4981991;28;20312;-76
2023/04/29 13:43:53;;;;;;;;;;;;;;;13.15;69.46;100894.94;4982463;28;19960;-76
2023/04/29 13:46:56;;;;;;;;;;;;;;;12.97;70.07;100899.44;4982300;28;19967;-75
2023/04/29 13:49:59;;;;;;;;;;;;;;;12.98;70.45;100904.56;4980428;28;19945;-76
2023/04/29 13:53:02;;;;;;;;;;;;;;;13.20;70.75;100908.63;4980831;28;19924;-76
2023/04/29 13:56:06;;;;;;;;;;;;;;;13.24;71.01;100903.16;4981202;28;19926;-76
2023/04/29 13:59:09;;;;;;;;;;;;;;;13.28;71.09;100900.34;4981636;28;20302;-75
2023/04/29 14:02:13;;;;;;;;;;;;;;;13.25;70.94;100902.22;4969455;28;20479;-75
2023/04/29 14:05:16;;;;;;;;;;;;;;;13.12;70.47;100909.06;4980638;28;19960;-73
2023/04/29 14:08:20;;;;;;;;;;;;;;;12.98;70.65;100906.34;4979908;28;19991;-74
2023/04/29 14:11:23;;;;;;;;;;;;;;;12.91;71.69;100918.97;4980518;28;20001;-74
2023/04/29 14:14:26;;;;;;;;;;;;;;;12.68;72.56;100925.50;4980396;28;20290;-74
2023/04/29 14:17:29;;;;;;;;;;;;;;;12.65;72.86;100920.44;4980312;28;19925;-74
2023/04/29 14:20:31;;;;;;;;;;;;;;;12.67;72.56;100921.19;4980677;28;19929;-74
2023/04/29 14:23:35;;;;;;;;;;;;;;;12.73;73.13;100910.38;4980844;28;19929;-74
2023/04/29 14:26:38;;;;;;;;;;;;;;;12.78;73.58;100916.19;4980543;28;19926;-75
2023/04/29 14:29:41;;;;;;;;;;;;;;;12.77;73.03;100922.38;4981680;28;19995;-75
2023/04/29 14:32:45;;;;;;;;;;;;;;;12.94;73.04;100923.22;4979755;28;20392;-75
2023/04/29 14:35:48;;;;;;;;;;;;;;;13.01;71.34;100917.53;4980253;28;20392;-75
2023/04/29 14:38:52;;;;;;;;;;;;;;;13.16;71.75;100918.47;4980536;28;20407;-75
2023/04/29 14:41:55;;;;;;;;;;;;;;;13.21;71.25;100921.69;4980490;28;19940;-75
2023/04/29 14:44:59;;;;;;;;;;;;;;;13.12;70.93;100919.56;4975274;28;20294;-75
2023/04/29 14:48:03;;;;;;;;;;;;;;;12.96;71.60;100932.72;4981514;28;19925;-75
2023/04/29 14:51:06;;;;;;;;;;;;;;;13.07;70.96;100939.97;4979926;28;19975;-75
2023/04/29 14:54:11;;;;;;;;;;;;;;;12.91;71.26;100944.38;4980224;28;19940;-75
2023/04/29 14:57:16;;;;;;;;;;;;;;;12.89;71.36;100941.88;4980046;28;19929;-77
2023/04/29 15:00:20;;;;;;;;;;;;;;;12.93;71.81;100950.41;4981194;28;19936;-79
2023/04/29 15:03:25;;;;;;;;;;;;;;;13.03;71.46;100951.59;4979652;28;20325;-72
2023/04/29 15:06:36;;;;;;;;;;;;;;;13.02;71.68;100961.25;4979893;28;20060;-73
2023/04/29 15:09:40;;;;;;;;;;;;;;;13.02;71.76;100963.03;4981308;28;20633;-73
2023/04/29 15:12:43;;;;;;;;;;;;;;;12.95;71.46;100961.66;4980703;28;20005;-74
2023/04/29 15:15:46;;;;;;;;;;;;;;;12.94;72.32;100962.59;4992523;28;19925;-74
2023/04/29 15:18:49;;;;;;;;;;;;;;;12.93;72.34;100964.38;4983542;28;20075;-73
2023/04/29 15:21:52;;;;;;;;;;;;;;;12.93;71.93;100974.03;4982610;28;20380;-74
2023/04/29 15:24:55;;;;;;;;;;;;;;;12.73;71.92;100968.09;4974655;28;19924;-73
2023/04/29 15:27:58;;;;;;;;;;;;;;;12.75;73.00;100974.09;4974202;28;19925;-73
2023/04/29 15:31:03;;;;;;;;;;;;;;;12.94;73.01;100967.84;4973711;28;19926;-73
2023/04/29 15:34:08;;;;;;;;;;;;;;;13.17;72.91;100967.41;5024243;28;19969;-73
2023/04/29 15:37:12;;;;;;;;;;;;;;;13.07;70.82;100968.00;5095596;28;19923;-73
2023/04/29 15:40:16;;;;;;;;;;;;;;;12.90;71.92;100968.94;5090212;28;20441;-73
2023/04/29 15:43:20;;;;;;;;;;;;;;;12.85;72.41;100976.22;4973425;28;19941;-73
2023/04/29 15:46:23;;;;;;;;;;;;;;;12.91;72.83;100968.84;4973475;28;19926;-73
2023/04/29 15:49:26;;;;;;;;;;;;;;;12.93;71.87;100981.91;4974921;28;20036;-73
2023/04/29 15:52:30;;;;;;;;;;;;;;;12.93;72.57;100974.03;4973551;28;19925;-73
2023/04/29 15:55:34;;;;;;;;;;;;;;;12.92;72.87;100975.81;4973359;28;19948;-72
2023/04/29 15:58:37;;;;;;;;;;;;;;;12.91;71.65;100975.88;4973249;28;20393;-73
2023/04/29 16:01:40;;;;;;;;;;;;;;;12.77;71.82;100984.50;4991774;28;20022;-74
2023/04/29 16:04:43;;;;;;;;;;;;;;;12.64;72.10;100984.34;4992433;28;20369;-73
2023/04/29 16:07:47;;;;;;;;;;;;;;;12.61;72.81;100988.91;4992733;28;20424;-72
2023/04/29 16:10:50;;;;;;;;;;;;;;;12.58;72.87;100984.66;4992636;28;19925;-73